sensor_id;sensor_type;location;lat;lon;timestamp;pressure;altitude;pressure_sealevel;temperature;humidity
72061;BME280;59925;52.136;5.420;2023-05-24T00:01:42;102644.59;;;7.39;78.01
72061;BME280;59925;52.136;5.420;2023-05-24T00:04:09;102639.06;;;7.33;78.16
72061;BME280;59925;52.136;5.420;2023-05-24T00:06:36;102639.44;;;7.24;78.15
72061;BME280;59925;52.136;5.420;2023-05-24T00:09:03;102638.03;;;7.21;78.80
72061;BME280;59925;52.136;5.420;2023-05-24T00:11:29;102641.91;;;7.18;78.63
72061;BME280;59925;52.136;5.420;2023-05-24T00:13:56;102638.81;;;7.15;78.66
72061;BME280;59925;52.136;5.420;2023-05-24T00:16:22;102627.94;;;7.16;78.88
72061;BME280;59925;52.136;5.420;2023-05-24T00:18:49;102630.00;;;7.14;78.97
72061;BME280;59925;52.136;5.420;2023-05-24T00:21:17;102633.69;;;7.13;79.19
72061;BME280;59925;52.136;5.420;2023-05-24T00:23:44;102636.34;;;7.13;79.21
72061;BME280;59925;52.136;5.420;2023-05-24T00:26:11;102636.13;;;7.08;79.35
72061;BME280;59925;52.136;5.420;2023-05-24T00:28:37;102631.41;;;7.03;79.60
72061;BME280;59925;52.136;5.420;2023-05-24T00:31:04;102634.25;;;7.02;79.66
72061;BME280;59925;52.136;5.420;2023-05-24T00:33:30;102626.47;;;7.00;79.53
72061;BME280;59925;52.136;5.420;2023-05-24T00:35:57;102626.69;;;7.05;79.26
72061;BME280;59925;52.136;5.420;2023-05-24T00:38:26;102624.84;;;7.06;79.03
72061;BME280;59925;52.136;5.420;2023-05-24T00:40:53;102620.31;;;7.00;78.92
72061;BME280;59925;52.136;5.420;2023-05-24T00:43:23;102619.47;;;6.93;79.12
72061;BME280;59925;52.136;5.420;2023-05-24T00:46:08;102614.94;;;6.86;79.47
72061;BME280;59925;52.136;5.420;2023-05-24T00:48:38;102612.69;;;6.83;79.47
72061;BME280;59925;52.136;5.420;2023-05-24T00:51:05;102610.81;;;6.84;79.59
72061;BME280;59925;52.136;5.420;2023-05-24T00:53:32;102605.94;;;6.87;79.32
72061;BME280;59925;52.136;5.420;2023-05-24T00:56:01;102615.75;;;6.87;79.36
72061;BME280;59925;52.136;5.420;2023-05-24T00:58:29;102603.03;;;6.82;79.51
72061;BME280;59925;52.136;5.420;2023-05-24T01:00:58;102610.63;;;6.79;79.73
72061;BME280;59925;52.136;5.420;2023-05-24T01:03:26;102608.56;;;6.74;79.84
72061;BME280;59925;52.136;5.420;2023-05-24T01:05:57;102611.63;;;6.71;80.10
72061;BME280;59925;52.136;5.420;2023-05-24T01:11:37;102607.69;;;6.67;80.28
72061;BME280;59925;52.136;5.420;2023-05-24T01:14:19;102618.34;;;6.67;80.04
72061;BME280;59925;52.136;5.420;2023-05-24T01:17:19;102619.38;;;6.66;80.19
72061;BME280;59925;52.136;5.420;2023-05-24T01:20:03;102607.69;;;6.67;80.10
72061;BME280;59925;52.136;5.420;2023-05-24T01:26:07;102614.91;;;6.73;80.17
72061;BME280;59925;52.136;5.420;2023-05-24T01:28:40;102611.81;;;6.76;80.03
72061;BME280;59925;52.136;5.420;2023-05-24T01:31:10;102622.94;;;6.80;80.06
72061;BME280;59925;52.136;5.420;2023-05-24T01:33:42;102617.38;;;6.81;80.12
72061;BME280;59925;52.136;5.420;2023-05-24T01:36:09;102611.66;;;6.84;80.21
72061;BME280;59925;52.136;5.420;2023-05-24T01:38:36;102614.94;;;6.86;79.96
72061;BME280;59925;52.136;5.420;2023-05-24T01:41:21;102618.84;;;6.90;80.21
72061;BME280;59925;52.136;5.420;2023-05-24T01:46:38;102608.41;;;6.96;80.26
72061;BME280;59925;52.136;5.420;2023-05-24T01:49:21;102613.75;;;6.96;80.43
72061;BME280;59925;52.136;5.420;2023-05-24T01:51:58;102609.44;;;6.95;80.35
72061;BME280;59925;52.136;5.420;2023-05-24T01:54:26;102614.38;;;6.98;80.57
72061;BME280;59925;52.136;5.420;2023-05-24T01:56:54;102608.81;;;6.99;80.67
72061;BME280;59925;52.136;5.420;2023-05-24T01:59:23;102612.91;;;7.02;81.67
72061;BME280;59925;52.136;5.420;2023-05-24T02:01:51;102602.69;;;7.05;81.77
72061;BME280;59925;52.136;5.420;2023-05-24T02:04:18;102611.09;;;7.09;82.28
72061;BME280;59925;52.136;5.420;2023-05-24T02:06:44;102602.72;;;7.12;82.33
72061;BME280;59925;52.136;5.420;2023-05-24T02:09:11;102603.13;;;7.16;82.83
72061;BME280;59925;52.136;5.420;2023-05-24T02:11:37;102603.75;;;7.18;82.71
72061;BME280;59925;52.136;5.420;2023-05-24T02:14:04;102613.78;;;7.23;83.17
72061;BME280;59925;52.136;5.420;2023-05-24T02:16:30;102604.78;;;7.24;83.08
72061;BME280;59925;52.136;5.420;2023-05-24T02:18:56;102605.16;;;7.20;82.75
72061;BME280;59925;52.136;5.420;2023-05-24T02:21:23;102598.59;;;7.16;82.91
72061;BME280;59925;52.136;5.420;2023-05-24T02:23:51;102597.78;;;7.16;83.08
72061;BME280;59925;52.136;5.420;2023-05-24T02:26:17;102593.69;;;7.13;82.99
72061;BME280;59925;52.136;5.420;2023-05-24T02:28:44;102595.91;;;7.10;82.71
72061;BME280;59925;52.136;5.420;2023-05-24T02:31:10;102599.59;;;7.09;82.76
72061;BME280;59925;52.136;5.420;2023-05-24T02:33:37;102599.59;;;7.09;82.72
72061;BME280;59925;52.136;5.420;2023-05-24T02:36:03;102596.94;;;7.09;82.48
72061;BME280;59925;52.136;5.420;2023-05-24T02:38:30;102605.34;;;7.05;82.74
72061;BME280;59925;52.136;5.420;2023-05-24T02:40:57;102601.22;;;7.03;82.72
72061;BME280;59925;52.136;5.420;2023-05-24T02:43:23;102595.69;;;6.98;82.83
72061;BME280;59925;52.136;5.420;2023-05-24T02:45:50;102604.72;;;6.97;82.76
72061;BME280;59925;52.136;5.420;2023-05-24T02:48:16;102597.94;;;6.94;82.79
72061;BME280;59925;52.136;5.420;2023-05-24T02:50:43;102601.44;;;6.95;82.49
72061;BME280;59925;52.136;5.420;2023-05-24T02:53:09;102607.56;;;6.95;82.86
72061;BME280;59925;52.136;5.420;2023-05-24T02:55:37;102606.97;;;6.93;83.01
72061;BME280;59925;52.136;5.420;2023-05-24T02:58:03;102617.44;;;6.95;83.18
72061;BME280;59925;52.136;5.420;2023-05-24T03:00:30;102612.09;;;6.95;83.14
72061;BME280;59925;52.136;5.420;2023-05-24T03:02:56;102610.44;;;6.94;83.15
72061;BME280;59925;52.136;5.420;2023-05-24T03:05:27;102610.84;;;6.90;83.07
72061;BME280;59925;52.136;5.420;2023-05-24T03:07:54;102610.03;;;6.90;83.04
72061;BME280;59925;52.136;5.420;2023-05-24T03:10:21;102613.72;;;6.89;83.04
72061;BME280;59925;52.136;5.420;2023-05-24T03:12:48;102605.09;;;6.87;83.21
72061;BME280;59925;52.136;5.420;2023-05-24T03:15:14;102603.84;;;6.83;83.31
72061;BME280;59925;52.136;5.420;2023-05-24T03:17:41;102615.53;;;6.82;83.37
72061;BME280;59925;52.136;5.420;2023-05-24T03:20:08;102611.25;;;6.81;83.10
72061;BME280;59925;52.136;5.420;2023-05-24T03:22:36;102602.81;;;6.77;83.19
72061;BME280;59925;52.136;5.420;2023-05-24T03:25:03;102596.84;;;6.75;83.48
72061;BME280;59925;52.136;5.420;2023-05-24T03:27:30;102588.03;;;6.74;83.37
72061;BME280;59925;52.136;5.420;2023-05-24T03:29:56;102592.56;;;6.74;83.94
72061;BME280;59925;52.136;5.420;2023-05-24T03:32:23;102583.94;;;6.72;84.15
72061;BME280;59925;52.136;5.420;2023-05-24T03:34:49;102585.75;;;6.71;83.50
72061;BME280;59925;52.136;5.420;2023-05-24T03:37:16;102584.97;;;6.71;83.42
72061;BME280;59925;52.136;5.420;2023-05-24T03:39:42;102582.69;;;6.68;83.68
72061;BME280;59925;52.136;5.420;2023-05-24T03:42:09;102587.00;;;6.69;83.61
72061;BME280;59925;52.136;5.420;2023-05-24T03:44:37;102597.66;;;6.69;83.66
72061;BME280;59925;52.136;5.420;2023-05-24T03:47:04;102601.13;;;6.69;83.80
72061;BME280;59925;52.136;5.420;2023-05-24T03:49:30;102589.03;;;6.67;84.00
72061;BME280;59925;52.136;5.420;2023-05-24T03:51:57;102591.69;;;6.67;84.02
72061;BME280;59925;52.136;5.420;2023-05-24T03:54:23;102597.66;;;6.69;84.09
72061;BME280;59925;52.136;5.420;2023-05-24T03:56:51;102591.31;;;6.70;84.28
72061;BME280;59925;52.136;5.420;2023-05-24T03:59:18;102594.38;;;6.73;83.95
72061;BME280;59925;52.136;5.420;2023-05-24T04:01:45;102589.47;;;6.77;84.04
72061;BME280;59925;52.136;5.420;2023-05-24T04:04:11;102595.03;;;6.82;84.06
72061;BME280;59925;52.136;5.420;2023-05-24T04:06:38;102589.94;;;6.87;84.04
72061;BME280;59925;52.136;5.420;2023-05-24T04:09:07;102590.34;;;6.91;84.05
72061;BME280;59925;52.136;5.420;2023-05-24T04:11:35;102601.44;;;6.95;84.02
72061;BME280;59925;52.136;5.420;2023-05-24T04:14:01;102595.06;;;6.96;84.26
72061;BME280;59925;52.136;5.420;2023-05-24T04:16:28;102591.00;;;7.00;83.64
72061;BME280;59925;52.136;5.420;2023-05-24T04:18:56;102592.03;;;7.05;84.10
72061;BME280;59925;52.136;5.420;2023-05-24T04:21:23;102591.81;;;7.07;84.50
72061;BME280;59925;52.136;5.420;2023-05-24T04:23:50;102591.81;;;7.14;84.54
72061;BME280;59925;52.136;5.420;2023-05-24T04:26:16;102589.56;;;7.17;84.04
72061;BME280;59925;52.136;5.420;2023-05-24T04:28:43;102595.94;;;7.23;84.11
72061;BME280;59925;52.136;5.420;2023-05-24T04:31:13;102589.78;;;7.29;83.41
72061;BME280;59925;52.136;5.420;2023-05-24T04:33:41;102585.50;;;7.35;83.88
72061;BME280;59925;52.136;5.420;2023-05-24T04:36:08;102601.72;;;7.40;84.17
72061;BME280;59925;52.136;5.420;2023-05-24T04:38:38;102591.22;;;7.45;84.29
72061;BME280;59925;52.136;5.420;2023-05-24T04:41:05;102600.06;;;7.53;84.70
72061;BME280;59925;52.136;5.420;2023-05-24T04:43:32;102589.59;;;7.58;84.95
72061;BME280;59925;52.136;5.420;2023-05-24T04:46:00;102594.91;;;7.64;85.41
72061;BME280;59925;52.136;5.420;2023-05-24T04:48:27;102596.56;;;7.72;85.64
72061;BME280;59925;52.136;5.420;2023-05-24T04:50:54;102597.41;;;7.79;85.70
72061;BME280;59925;52.136;5.420;2023-05-24T04:53:22;102598.19;;;7.87;85.83
72061;BME280;59925;52.136;5.420;2023-05-24T04:55:49;102602.50;;;7.94;86.11
72061;BME280;59925;52.136;5.420;2023-05-24T04:58:16;102600.44;;;8.03;86.33
72061;BME280;59925;52.136;5.420;2023-05-24T05:00:43;102597.34;;;8.13;86.59
72061;BME280;59925;52.136;5.420;2023-05-24T05:03:10;102594.44;;;8.21;86.42
72061;BME280;59925;52.136;5.420;2023-05-24T05:05:37;102600.38;;;8.30;86.33
72061;BME280;59925;52.136;5.420;2023-05-24T05:08:03;102606.47;;;8.44;86.43
72061;BME280;59925;52.136;5.420;2023-05-24T05:10:30;102589.91;;;8.81;86.43
72061;BME280;59925;52.136;5.420;2023-05-24T05:12:56;102592.69;;;8.99;85.65
72061;BME280;59925;52.136;5.420;2023-05-24T05:15:23;102597.63;;;9.28;85.68
72061;BME280;59925;52.136;5.420;2023-05-24T05:17:49;102606.34;;;9.92;84.69
72061;BME280;59925;52.136;5.420;2023-05-24T05:20:16;102600.13;;;10.17;82.69
72061;BME280;59925;52.136;5.420;2023-05-24T05:22:49;102595.78;;;9.97;81.79
72061;BME280;59925;52.136;5.420;2023-05-24T05:25:16;102594.94;;;9.78;81.87
72061;BME280;59925;52.136;5.420;2023-05-24T05:27:43;102601.00;;;9.67;82.66
72061;BME280;59925;52.136;5.420;2023-05-24T05:30:09;102605.88;;;9.77;82.69
72061;BME280;59925;52.136;5.420;2023-05-24T05:32:36;102598.09;;;10.31;82.96
72061;BME280;59925;52.136;5.420;2023-05-24T05:35:03;102603.78;;;11.92;81.15
72061;BME280;59925;52.136;5.420;2023-05-24T05:37:30;102602.66;;;13.45;76.44
72061;BME280;59925;52.136;5.420;2023-05-24T05:39:56;102602.06;;;14.66;71.55
72061;BME280;59925;52.136;5.420;2023-05-24T05:42:23;102599.38;;;15.21;67.73
72061;BME280;59925;52.136;5.420;2023-05-24T05:44:49;102604.53;;;15.65;66.34
72061;BME280;59925;52.136;5.420;2023-05-24T05:47:17;102604.28;;;16.15;64.29
72061;BME280;59925;52.136;5.420;2023-05-24T05:49:44;102603.44;;;16.09;62.31
72061;BME280;59925;52.136;5.420;2023-05-24T05:52:10;102606.47;;;16.13;62.16
72061;BME280;59925;52.136;5.420;2023-05-24T05:54:37;102600.13;;;16.65;61.22
72061;BME280;59925;52.136;5.420;2023-05-24T05:57:04;102611.31;;;16.95;60.59
72061;BME280;59925;52.136;5.420;2023-05-24T05:59:30;102606.19;;;17.19;58.87
72061;BME280;59925;52.136;5.420;2023-05-24T06:02:02;102606.69;;;17.42;58.48
72061;BME280;59925;52.136;5.420;2023-05-24T06:04:28;102602.38;;;17.41;57.14
72061;BME280;59925;52.136;5.420;2023-05-24T06:06:55;102608.88;;;17.40;57.49
72061;BME280;59925;52.136;5.420;2023-05-24T06:09:22;102608.31;;;17.38;56.47
72061;BME280;59925;52.136;5.420;2023-05-24T06:11:48;102601.03;;;17.38;56.41
72061;BME280;59925;52.136;5.420;2023-05-24T06:14:15;102607.19;;;17.65;56.39
72061;BME280;59925;52.136;5.420;2023-05-24T06:16:46;102598.81;;;17.45;56.34
72061;BME280;59925;52.136;5.420;2023-05-24T06:19:13;102602.88;;;17.53;55.97
72061;BME280;59925;52.136;5.420;2023-05-24T06:21:40;102605.09;;;17.46;55.57
72061;BME280;59925;52.136;5.420;2023-05-24T06:24:13;102608.84;;;17.66;55.49
72061;BME280;59925;52.136;5.420;2023-05-24T06:26:40;102598.78;;;17.71;55.07
72061;BME280;59925;52.136;5.420;2023-05-24T06:29:07;102601.78;;;17.65;55.07
72061;BME280;59925;52.136;5.420;2023-05-24T06:31:34;102615.06;;;17.56;55.04
72061;BME280;59925;52.136;5.420;2023-05-24T06:34:01;102611.81;;;16.87;55.14
72061;BME280;59925;52.136;5.420;2023-05-24T06:36:30;102626.44;;;16.85;56.17
72061;BME280;59925;52.136;5.420;2023-05-24T06:38:59;102619.56;;;16.47;56.10
72061;BME280;59925;52.136;5.420;2023-05-24T06:41:26;102617.13;;;16.40;57.01
72061;BME280;59925;52.136;5.420;2023-05-24T06:43:53;102623.69;;;16.65;57.02
72061;BME280;59925;52.136;5.420;2023-05-24T06:46:20;102613.72;;;16.91;55.40
72061;BME280;59925;52.136;5.420;2023-05-24T06:48:46;102621.88;;;16.96;55.74
72061;BME280;59925;52.136;5.420;2023-05-24T06:51:13;102623.78;;;17.06;55.72
72061;BME280;59925;52.136;5.420;2023-05-24T06:53:39;102617.75;;;16.89;55.91
72061;BME280;59925;52.136;5.420;2023-05-24T06:56:06;102614.63;;;16.23;56.53
72061;BME280;59925;52.136;5.420;2023-05-24T06:58:34;102627.06;;;15.76;57.72
72061;BME280;59925;52.136;5.420;2023-05-24T07:01:01;102619.34;;;15.20;59.60
72061;BME280;59925;52.136;5.420;2023-05-24T07:03:30;102626.81;;;15.07;60.54
72061;BME280;59925;52.136;5.420;2023-05-24T07:05:57;102625.84;;;15.24;60.24
72061;BME280;59925;52.136;5.420;2023-05-24T07:08:24;102627.16;;;14.89;59.98
72061;BME280;59925;52.136;5.420;2023-05-24T07:10:52;102629.81;;;14.61;61.35
72061;BME280;59925;52.136;5.420;2023-05-24T07:13:18;102633.03;;;14.58;62.53
72061;BME280;59925;52.136;5.420;2023-05-24T07:15:45;102632.16;;;14.75;62.28
72061;BME280;59925;52.136;5.420;2023-05-24T07:18:12;102632.47;;;14.78;61.77
72061;BME280;59925;52.136;5.420;2023-05-24T07:20:39;102631.13;;;14.59;61.59
72061;BME280;59925;52.136;5.420;2023-05-24T07:23:07;102634.38;;;14.61;62.87
72061;BME280;59925;52.136;5.420;2023-05-24T07:25:33;102626.69;;;14.69;62.29
72061;BME280;59925;52.136;5.420;2023-05-24T07:28:00;102631.97;;;14.59;62.24
72061;BME280;59925;52.136;5.420;2023-05-24T07:30:26;102634.16;;;14.40;62.13
72061;BME280;59925;52.136;5.420;2023-05-24T07:32:58;102631.16;;;14.14;63.06
72061;BME280;59925;52.136;5.420;2023-05-24T07:35:25;102634.34;;;14.11;63.27
72061;BME280;59925;52.136;5.420;2023-05-24T07:37:52;102637.34;;;14.15;63.56
72061;BME280;59925;52.136;5.420;2023-05-24T07:40:18;102631.97;;;14.37;63.35
72061;BME280;59925;52.136;5.420;2023-05-24T07:42:45;102641.63;;;14.77;64.14
72061;BME280;59925;52.136;5.420;2023-05-24T07:45:12;102637.63;;;15.07;63.02
72061;BME280;59925;52.136;5.420;2023-05-24T07:47:39;102626.47;;;15.31;62.97
72061;BME280;59925;52.136;5.420;2023-05-24T07:50:06;102634.53;;;15.26;61.19
72061;BME280;59925;52.136;5.420;2023-05-24T07:52:32;102641.03;;;15.30;61.93
72061;BME280;59925;52.136;5.420;2023-05-24T07:54:59;102633.50;;;15.70;61.72
72061;BME280;59925;52.136;5.420;2023-05-24T07:57:26;102637.53;;;16.10;61.32
72061;BME280;59925;52.136;5.420;2023-05-24T07:59:52;102629.53;;;16.36;60.22
72061;BME280;59925;52.136;5.420;2023-05-24T08:02:19;102635.19;;;16.24;60.07
72061;BME280;59925;52.136;5.420;2023-05-24T08:04:45;102631.22;;;15.89;59.14
72061;BME280;59925;52.136;5.420;2023-05-24T08:07:13;102631.16;;;15.46;59.20
72061;BME280;59925;52.136;5.420;2023-05-24T08:09:41;102622.13;;;15.30;60.07
72061;BME280;59925;52.136;5.420;2023-05-24T08:12:07;102635.66;;;15.35;60.09
72061;BME280;59925;52.136;5.420;2023-05-24T08:14:34;102624.09;;;15.40;59.92
72061;BME280;59925;52.136;5.420;2023-05-24T08:17:00;102631.25;;;15.24;59.94
72061;BME280;59925;52.136;5.420;2023-05-24T08:19:27;102634.06;;;15.34;60.05
72061;BME280;59925;52.136;5.420;2023-05-24T08:21:54;102627.16;;;15.54;59.62
72061;BME280;59925;52.136;5.420;2023-05-24T08:24:22;102631.09;;;15.73;59.59
72061;BME280;59925;52.136;5.420;2023-05-24T08:26:49;102625.91;;;16.09;59.38
72061;BME280;59925;52.136;5.420;2023-05-24T08:29:18;102633.16;;;16.62;58.64
72061;BME280;59925;52.136;5.420;2023-05-24T08:31:44;102616.47;;;17.27;58.99
72061;BME280;59925;52.136;5.420;2023-05-24T08:34:11;102625.09;;;17.66;57.11
72061;BME280;59925;52.136;5.420;2023-05-24T08:36:38;102620.19;;;17.83;55.68
72061;BME280;59925;52.136;5.420;2023-05-24T08:39:06;102627.84;;;17.55;54.57
72061;BME280;59925;52.136;5.420;2023-05-24T08:41:34;102619.97;;;17.18;54.57
72061;BME280;59925;52.136;5.420;2023-05-24T08:44:04;102622.44;;;17.40;54.91
72061;BME280;59925;52.136;5.420;2023-05-24T08:46:36;102619.16;;;17.58;54.19
72061;BME280;59925;52.136;5.420;2023-05-24T08:49:03;102619.66;;;17.86;53.38
72061;BME280;59925;52.136;5.420;2023-05-24T08:51:30;102611.47;;;18.02;53.43
72061;BME280;59925;52.136;5.420;2023-05-24T08:54:00;102619.00;;;18.20;53.20
72061;BME280;59925;52.136;5.420;2023-05-24T08:56:27;102621.31;;;17.67;52.77
72061;BME280;59925;52.136;5.420;2023-05-24T08:58:56;102619.94;;;17.69;53.68
72061;BME280;59925;52.136;5.420;2023-05-24T09:01:23;102619.97;;;17.64;54.19
72061;BME280;59925;52.136;5.420;2023-05-24T09:03:50;102618.63;;;17.56;54.31
72061;BME280;59925;52.136;5.420;2023-05-24T09:06:19;102618.91;;;17.50;52.93
72061;BME280;59925;52.136;5.420;2023-05-24T09:08:45;102622.69;;;17.49;53.79
72061;BME280;59925;52.136;5.420;2023-05-24T09:11:14;102626.22;;;17.44;52.44
72061;BME280;59925;52.136;5.420;2023-05-24T09:13:44;102611.47;;;18.07;52.72
72061;BME280;59925;52.136;5.420;2023-05-24T09:16:11;102614.81;;;18.89;52.08
72061;BME280;59925;52.136;5.420;2023-05-24T09:18:39;102610.22;;;19.24;51.16
72061;BME280;59925;52.136;5.420;2023-05-24T09:21:06;102619.66;;;19.02;49.75
72061;BME280;59925;52.136;5.420;2023-05-24T09:23:34;102620.81;;;18.35;50.50
72061;BME280;59925;52.136;5.420;2023-05-24T09:26:06;102630.78;;;17.74;50.33
72061;BME280;59925;52.136;5.420;2023-05-24T09:28:33;102633.72;;;17.88;52.83
72061;BME280;59925;52.136;5.420;2023-05-24T09:31:01;102619.09;;;18.55;51.73
72061;BME280;59925;52.136;5.420;2023-05-24T09:33:33;102619.16;;;18.90;50.37
72061;BME280;59925;52.136;5.420;2023-05-24T09:36:02;102618.72;;;18.77;49.71
72061;BME280;59925;52.136;5.420;2023-05-24T09:38:29;102622.75;;;18.35;49.67
72061;BME280;59925;52.136;5.420;2023-05-24T09:41:03;102626.69;;;17.98;50.67
72061;BME280;59925;52.136;5.420;2023-05-24T09:43:30;102624.56;;;17.69;51.04
72061;BME280;59925;52.136;5.420;2023-05-24T09:45:58;102624.00;;;17.61;51.13
72061;BME280;59925;52.136;5.420;2023-05-24T09:48:25;102618.59;;;17.72;51.69
72061;BME280;59925;52.136;5.420;2023-05-24T09:51:02;102624.81;;;17.67;51.12
72061;BME280;59925;52.136;5.420;2023-05-24T09:53:31;102625.13;;;17.55;50.80
72061;BME280;59925;52.136;5.420;2023-05-24T09:55:59;102630.56;;;17.40;51.57
72061;BME280;59925;52.136;5.420;2023-05-24T09:58:31;102625.91;;;17.71;52.86
72061;BME280;59925;52.136;5.420;2023-05-24T10:01:10;102619.84;;;18.16;52.19
72061;BME280;59925;52.136;5.420;2023-05-24T10:03:54;102626.25;;;18.41;49.53
72061;BME280;59925;52.136;5.420;2023-05-24T10:06:21;102628.56;;;18.02;48.95
72061;BME280;59925;52.136;5.420;2023-05-24T10:08:50;102630.53;;;17.66;49.72
72061;BME280;59925;52.136;5.420;2023-05-24T10:11:19;102631.63;;;17.54;49.88
72061;BME280;59925;52.136;5.420;2023-05-24T10:13:47;102629.22;;;17.37;50.96
72061;BME280;59925;52.136;5.420;2023-05-24T10:16:14;102634.34;;;17.28;51.58
72061;BME280;59925;52.136;5.420;2023-05-24T10:18:41;102632.19;;;17.41;52.38
72061;BME280;59925;52.136;5.420;2023-05-24T10:21:09;102628.34;;;17.73;51.53
72061;BME280;59925;52.136;5.420;2023-05-24T10:23:37;102634.25;;;17.90;51.35
72061;BME280;59925;52.136;5.420;2023-05-24T10:26:08;102617.44;;;18.04;50.14
72061;BME280;59925;52.136;5.420;2023-05-24T10:28:48;102623.69;;;17.99;50.26
72061;BME280;59925;52.136;5.420;2023-05-24T10:31:28;102619.09;;;17.84;49.86
72061;BME280;59925;52.136;5.420;2023-05-24T10:33:57;102627.78;;;17.86;49.71
72061;BME280;59925;52.136;5.420;2023-05-24T10:36:33;102622.06;;;17.83;49.93
72061;BME280;59925;52.136;5.420;2023-05-24T10:39:00;102628.59;;;17.97;49.27
72061;BME280;59925;52.136;5.420;2023-05-24T10:41:27;102621.00;;;17.89;49.09
72061;BME280;59925;52.136;5.420;2023-05-24T10:43:56;102625.28;;;17.95;49.04
72061;BME280;59925;52.136;5.420;2023-05-24T10:46:34;102627.81;;;17.71;49.76
72061;BME280;59925;52.136;5.420;2023-05-24T10:49:01;102623.16;;;17.82;49.89
72061;BME280;59925;52.136;5.420;2023-05-24T10:51:34;102623.16;;;17.92;50.18
72061;BME280;59925;52.136;5.420;2023-05-24T10:54:11;102621.41;;;18.27;49.48
72061;BME280;59925;52.136;5.420;2023-05-24T10:56:40;102619.41;;;18.48;49.34
72061;BME280;59925;52.136;5.420;2023-05-24T10:59:08;102620.56;;;18.37;48.24
72061;BME280;59925;52.136;5.420;2023-05-24T11:01:35;102614.31;;;18.36;48.15
72061;BME280;59925;52.136;5.420;2023-05-24T11:04:08;102617.97;;;18.11;46.86
72061;BME280;59925;52.136;5.420;2023-05-24T11:06:53;102620.44;;;17.92;47.98
72061;BME280;59925;52.136;5.420;2023-05-24T11:09:21;102612.03;;;17.99;48.36
72061;BME280;59925;52.136;5.420;2023-05-24T11:11:53;102622.56;;;18.16;48.66
72061;BME280;59925;52.136;5.420;2023-05-24T11:14:25;102620.28;;;18.38;48.34
72061;BME280;59925;52.136;5.420;2023-05-24T11:16:53;102611.28;;;18.48;48.78
72061;BME280;59925;52.136;5.420;2023-05-24T11:21:58;102610.66;;;18.62;48.47
72061;BME280;59925;52.136;5.420;2023-05-24T11:24:26;102608.41;;;18.69;47.90
72061;BME280;59925;52.136;5.420;2023-05-24T11:26:54;102616.78;;;18.78;48.20
72061;BME280;59925;52.136;5.420;2023-05-24T11:29:22;102610.47;;;18.88;48.60
72061;BME280;59925;52.136;5.420;2023-05-24T11:31:50;102612.50;;;19.11;47.81
72061;BME280;59925;52.136;5.420;2023-05-24T11:34:19;102609.69;;;19.22;48.35
72061;BME280;59925;52.136;5.420;2023-05-24T11:36:46;102612.25;;;19.42;48.61
72061;BME280;59925;52.136;5.420;2023-05-24T11:39:13;102609.22;;;19.44;48.36
72061;BME280;59925;52.136;5.420;2023-05-24T11:41:41;102614.13;;;19.42;48.29
72061;BME280;59925;52.136;5.420;2023-05-24T11:44:09;102609.88;;;19.60;47.78
72061;BME280;59925;52.136;5.420;2023-05-24T11:46:41;102611.16;;;19.68;47.63
72061;BME280;59925;52.136;5.420;2023-05-24T11:49:14;102617.44;;;19.93;47.32
72061;BME280;59925;52.136;5.420;2023-05-24T11:51:42;102612.28;;;19.91;46.62
72061;BME280;59925;52.136;5.420;2023-05-24T11:54:09;102615.44;;;19.74;46.54
72061;BME280;59925;52.136;5.420;2023-05-24T11:56:37;102615.38;;;20.09;46.79
72061;BME280;59925;52.136;5.420;2023-05-24T11:59:23;102612.34;;;20.10;46.08
72061;BME280;59925;52.136;5.420;2023-05-24T12:01:58;102606.66;;;19.82;45.50
72061;BME280;59925;52.136;5.420;2023-05-24T12:04:29;102610.28;;;19.72;45.72
72061;BME280;59925;52.136;5.420;2023-05-24T12:06:56;102607.78;;;19.52;46.10
72061;BME280;59925;52.136;5.420;2023-05-24T12:09:23;102609.66;;;20.05;46.80
72061;BME280;59925;52.136;5.420;2023-05-24T12:11:51;102607.97;;;20.52;46.46
72061;BME280;59925;52.136;5.420;2023-05-24T12:14:22;102603.78;;;20.60;45.84
72061;BME280;59925;52.136;5.420;2023-05-24T12:16:49;102604.34;;;20.57;45.62
72061;BME280;59925;52.136;5.420;2023-05-24T12:19:17;102604.28;;;20.62;45.96
72061;BME280;59925;52.136;5.420;2023-05-24T12:21:58;102611.00;;;20.51;45.12
72061;BME280;59925;52.136;5.420;2023-05-24T12:24:25;102605.25;;;20.52;45.77
72061;BME280;59925;52.136;5.420;2023-05-24T12:26:57;102598.53;;;20.45;44.90
72061;BME280;59925;52.136;5.420;2023-05-24T12:29:24;102604.06;;;20.40;46.37
72061;BME280;59925;52.136;5.420;2023-05-24T12:31:51;102607.97;;;20.33;46.42
72061;BME280;59925;52.136;5.420;2023-05-24T12:34:18;102603.09;;;20.30;46.35
72061;BME280;59925;52.136;5.420;2023-05-24T12:36:46;102600.00;;;20.18;45.17
72061;BME280;59925;52.136;5.420;2023-05-24T12:39:20;102603.31;;;20.34;45.07
72061;BME280;59925;52.136;5.420;2023-05-24T12:41:51;102599.75;;;20.77;45.52
72061;BME280;59925;52.136;5.420;2023-05-24T12:44:25;102594.19;;;20.82;44.67
72061;BME280;59925;52.136;5.420;2023-05-24T12:46:53;102599.44;;;20.78;45.06
72061;BME280;59925;52.136;5.420;2023-05-24T12:49:20;102600.31;;;20.74;44.20
72061;BME280;59925;52.136;5.420;2023-05-24T12:51:47;102609.53;;;20.97;45.85
72061;BME280;59925;52.136;5.420;2023-05-24T12:54:17;102595.78;;;21.35;45.62
72061;BME280;59925;52.136;5.420;2023-05-24T12:56:44;102602.22;;;21.72;45.31
72061;BME280;59925;52.136;5.420;2023-05-24T12:59:11;102591.78;;;21.88;44.38
72061;BME280;59925;52.136;5.420;2023-05-24T13:01:38;102606.03;;;21.99;43.55
72061;BME280;59925;52.136;5.420;2023-05-24T13:04:05;102607.44;;;22.11;42.92
72061;BME280;59925;52.136;5.420;2023-05-24T13:06:31;102606.34;;;22.12;41.98
72061;BME280;59925;52.136;5.420;2023-05-24T13:08:58;102607.94;;;21.99;41.67
72061;BME280;59925;52.136;5.420;2023-05-24T13:11:24;102603.41;;;21.94;41.82
72061;BME280;59925;52.136;5.420;2023-05-24T13:13:51;102612.91;;;21.97;41.84